Tiempo atmosférico en la estación meteorológica de Vigo, Pontevedra (120 m.)



Fecha
DESCASC
Temp. máxima en grados centígrados (hora)
DESCASC
Temp. mínima en grados centígrados (hora)
DESCASC
Temp. media en grados centígrados
DESCASC
Racha de viento máxima en m/sg (hora)
DESCASC
Velocidad máxima media en intervalos de 10 minutos(hora)
DESCASC
Precipitaciones diarias en mm
DESCASC
Precipitaciones de 00:00 a 06:00 en mm
DESCASC
Precipitaciones de 06:00 a 12:00 en mm
DESCASC
Precipitaciones de 12:00 a 18:00 en mm
DESCASC
Precipitaciones de 18:00 a 24:00 en mm
DESCASC
23-05-2020 24.7 (17:50) 13.6 (07:00) 19.2 10.83 (21:40) 5.83 (18:40) 0 0 0 0 0
22-05-2020 21.2 (13:50) 14.7 (00:00) 18 5.83 (14:50) 2.5 (15:30) 1.2 0.2 0.8 0.2 0
21-05-2020 20.6 (12:50) 13.5 (00:00) 17.1 6.39 (13:30) 2.5 (15:10) 0 0 0 0 0
20-05-2020 20.3 (14:20) 13.6 (00:00) 16.9 7.5 (15:10) 2.78 (16:00) 0 0 0 0 0
19-05-2020 23.4 (15:50) 13 (07:30) 18.2 5.28 (17:20) 2.5 (14:00) 0 0 0 0 0
18-05-2020 23.9 (14:40) 13.3 (00:00) 18.6 5.28 (18:30) 1.94 (17:20) 0 0 0 0 0
17-05-2020 22.3 (16:40) 14.2 (00:00) 18.2 5.28 (17:50) 2.22 (14:40) 0 0 0 0 0
16-05-2020 23.8 (19:40) 10.9 (00:00) 17.3 7.22 (21:50) 3.06 (21:30) 0 0 0 0 0
15-05-2020 22.3 (18:30) 11.8 (06:50) 17 9.72 (22:00) 3.06 (16:10) 0.2 0 0.2 0 0
14-05-2020 16 (12:40) 12 (00:00) 14 6.39 (21:40) 2.22 (22:00) 8.8 0 0 8.8 0
13-05-2020 19.4 (15:50) 12 (00:00) 15.7 6.67 (16:00) 2.5 (16:00) 3.6 0 0 0 3.6
12-05-2020 19.5 (18:00) 13.9 (07:10) 16.7 5.28 (15:50) 1.94 (15:00) 0 0 0 0 0
11-05-2020 21.7 (17:20) 13.2 (00:00) 17.5 6.67 (05:00) 2.5 (05:20) 2.2 0 0 0 2.2
10-05-2020 18.4 (19:20) 10.8 (00:00) 14.6 6.67 (17:50) 2.5 (14:10) 0 0 0 0 0
09-05-2020 18.1 (12:20) 12.4 (22:50) 15.3 7.78 (12:10) 2.78 (11:40) 4.2 0 0 1.6 2.6
08-05-2020 18.5 (17:00) 14.7 (00:00) 16.6 6.39 (17:00) 2.5 (15:10) 0 0 0 0 0
07-05-2020 24.3 (19:00) 12.7 (00:00) 18.5 4.72 (16:20) 1.67 (14:20) 0 0 0 0 0
06-05-2020 20.8 (13:10) 13.1 (00:00) 16.9 8.06 (16:10) 2.5 (17:20) 0.6 0.6 0 0 0
05-05-2020 21 (16:20) 13.3 (00:00) 17.2 7.5 (15:00) 3.33 (16:50) 0 0 0 0 0
04-05-2020 21.6 (00:00) 15.2 (00:00) 18.4 10.83 (14:20) 3.89 (17:30) 3 0 0 2.6 0.4
03-05-2020 28.3 (19:10) 12.6 (07:40) 20.4 5 (09:40) 2.5 (09:40) 0 0 0 0 0
02-05-2020 20.7 (15:30) 15.3 (05:10) 18 5.83 (16:30) 2.22 (16:30) 0.8 0.4 0.4 0 0
01-05-2020 16.1 (15:50) 14.7 (00:00) 15.4 9.72 (00:10) 3.06 (02:00) 16.4 13.2 1.2 0.2 1.8
30-04-2020 15.8 (13:50) 11.9 (03:40) 13.8 8.33 (02:40) 2.78 (21:30) 2.2 0.4 0.2 0.6 1
29-04-2020 15.7 (15:20) 11.6 (00:00) 13.7 7.78 (19:50) 2.78 (17:30) 11.2 4.4 2.6 0 4.2

Gráficas

Temp. máximas Temp. mínimas Temp. medias Precipitaciones Rachas de viento máximas Velocidades máximas media en intervalos de 10 minutos

Datos horarios

Fecha y hora oficial Temperatura (ºC) Velocidad del viento (km/h) Dirección del viento Racha (km/h) Dirección de racha Precipitación (mm) Presión (hPa) Tendencia (hPa) Humedad (%)
2020-05-28 23:00:00 21.6 0 Calma 4 Nordeste 0 -- -- 74
2020-05-28 22:00:00 22.5 3 Sudoeste 10 Oeste 0 -- -- 67
2020-05-28 21:00:00 24.8 4 Sur 12 Oeste 0 -- -- 56
2020-05-28 20:00:00 27 4 Sudoeste 14 Sudoeste 0 -- -- 51
2020-05-28 19:00:00 29.2 4 Sudoeste 13 Oeste 0 -- -- 51
2020-05-28 18:00:00 29.8 5 Oeste 14 Oeste 0 -- -- 45
2020-05-28 17:00:00 29 5 Sudoeste 15 Sudoeste 0 -- -- 51
2020-05-28 16:00:00 29.5 5 Oeste 15 Oeste 0 -- -- 51
2020-05-28 15:00:00 29.4 4 Sudoeste 14 Sudoeste 0 -- -- 54
2020-05-28 14:00:00 29.1 4 Oeste 13 Oeste 0 -- -- 53
2020-05-28 13:00:00 28.4 6 Oeste 13 Oeste 0 -- -- 54
2020-05-28 12:00:00 28.2 6 Oeste 11 Oeste 0 -- -- 58
2020-05-28 11:00:00 28.8 4 Nordeste 7 Nordeste 0 -- -- 55
2020-05-28 10:00:00 27.2 2 Nordeste 6 Este 0 -- -- 60
2020-05-28 09:00:00 25.1 2 Nordeste 6 Norte 0 -- -- 62
2020-05-28 08:00:00 23.2 3 Nordeste 13 Este 0 -- -- 69
2020-05-28 07:00:00 23 5 Este 14 Este 0 -- -- 68
2020-05-28 06:00:00 22.9 2 Nordeste 11 Sudeste 0 -- -- 70
2020-05-28 05:00:00 23.5 3 Este 10 Este 0 -- -- 66
2020-05-28 04:00:00 22.8 4 Este 7 Este 0 -- -- 68
2020-05-28 03:00:00 22.4 3 Nordeste 9 Este 0 -- -- 68
2020-05-28 02:00:00 21.8 2 Sudeste 5 Este 0 -- -- 71
2020-05-28 01:00:00 21.8 0 Calma 4 Este 0 -- -- 70
2020-05-28 00:00:00 22.5 0 Calma 3 Sur 0 -- -- 67
2020-05-27 23:00:00 23.3 0 Calma 6 Sur 0 -- -- 59
2020-05-27 22:00:00 25 0 Calma 6 Oeste 0 -- -- 57
2020-05-27 21:00:00 27.3 3 Oeste 9 Oeste 0 -- -- 50
2020-05-27 20:00:00 28.9 5 Oeste 17 Oeste 0 -- -- 46
2020-05-27 19:00:00 29.6 5 Oeste 17 Oeste 0 -- -- 45
2020-05-27 18:00:00 29.7 7 Sudoeste 17 Sudoeste 0 -- -- 45
2020-05-27 17:00:00 30.1 5 Sudoeste 17 Sudoeste 0 -- -- 47
2020-05-27 16:00:00 30.3 8 Sudoeste 21 Sur 0 -- -- 45
2020-05-27 15:00:00 32.3 4 Sudoeste 13 Oeste 0 -- -- 45
2020-05-27 14:00:00 31.8 4 Sudeste 15 Este 0 -- -- 45
2020-05-27 13:00:00 30.5 5 Sudeste 14 Sudeste 0 -- -- 47
2020-05-27 12:00:00 29.4 5 Este 21 Este 0 -- -- 53
2020-05-27 11:00:00 27.3 7 Este 16 Sudeste 0 -- -- 53
2020-05-27 10:00:00 25.9 5 Este 20 Este 0 -- -- 57
2020-05-27 09:00:00 24.2 5 Este 17 Nordeste 0 -- -- 59
2020-05-27 08:00:00 22.2 8 Este 22 Este 0 -- -- 64
2020-05-27 07:00:00 22.1 10 Este 22 Este 0 -- -- 63
2020-05-27 06:00:00 22 5 Nordeste 15 Este 0 -- -- 64
2020-05-27 05:00:00 21.8 5 Sudeste 17 Este 0 -- -- 65
2020-05-27 04:00:00 21.5 3 Sudeste 9 Este 0 -- -- 67
2020-05-27 03:00:00 22.5 4 Este 12 Este 0 -- -- 65
2020-05-27 02:00:00 23.5 6 Este 14 Este 0 -- -- 61
2020-05-27 01:00:00 23.9 5 Este 10 Este 0 -- -- 58
2020-05-27 00:00:00 24.8 4 Este 15 Este 0 -- -- 55
2020-05-26 23:00:00 25.7 5 Nordeste 14 Norte 0 -- -- 55
2020-05-26 22:00:00 27 6 Nordeste 20 Nordeste 0 -- -- 53
2020-05-26 21:00:00 29.1 9 Nordeste 22 Nordeste 0 -- -- 47
2020-05-26 20:00:00 32.2 5 Nordeste 20 Nordeste 0 -- -- 39
2020-05-26 19:00:00 33.2 6 Nordeste 21 Nordeste 0 -- -- 36
2020-05-26 18:00:00 32.7 6 Norte 19 Norte 0 -- -- 37
2020-05-26 17:00:00 32.3 7 Norte 22 Nordeste 0 -- -- 36
2020-05-26 16:00:00 31.7 8 Nordeste 22 Este 0 -- -- 37
2020-05-26 15:00:00 31.2 5 Nordeste 15 Este 0 -- -- 40
2020-05-26 14:00:00 29.9 6 Este 18 Este 0 -- -- 40
2020-05-26 13:00:00 28.7 6 Este 15 Este 0 -- -- 45
2020-05-26 12:00:00 26.8 5 Este 18 Este 0 -- -- 49
2020-05-26 11:00:00 24.8 6 Este 20 Este 0 -- -- 52
2020-05-26 10:00:00 22.8 6 Este 19 Este 0 -- -- 55
2020-05-26 09:00:00 20.7 4 Nordeste 18 Este 0 -- -- 61
2020-05-26 08:00:00 18.7 6 Nordeste 20 Este 0 -- -- 66
2020-05-26 07:00:00 18.6 8 Este 17 Este 0 -- -- 67
2020-05-26 06:00:00 18.6 4 Nordeste 13 Este 0 -- -- 68
2020-05-26 05:00:00 18.9 5 Nordeste 14 Nordeste 0 -- -- 68
2020-05-26 04:00:00 19.1 5 Nordeste 12 Este 0 -- -- 66
2020-05-26 03:00:00 18.8 5 Nordeste 16 Nordeste 0 -- -- 67
2020-05-26 02:00:00 19.2 5 Este 21 Nordeste 0 -- -- 64
2020-05-26 01:00:00 19.5 8 Nordeste 21 Nordeste 0 -- -- 62
2020-05-26 00:00:00 20.4 8 Nordeste 20 Nordeste 0 -- -- 59
2020-05-25 23:00:00 21.9 7 Nordeste 21 Nordeste 0 -- -- 58
2020-05-25 22:00:00 23.2 8 Nordeste 24 Norte 0 -- -- 57
2020-05-25 21:00:00 25.3 6 Nordeste 36 Norte 0 -- -- 53
2020-05-25 20:00:00 28.2 10 Nordeste 33 Norte 0 -- -- 47
2020-05-25 19:00:00 29.3 12 Nordeste 36 Nordeste 0 -- -- 46
2020-05-25 18:00:00 29.8 13 Nordeste 34 Nordeste 0 -- -- 45
2020-05-25 17:00:00 29.4 8 Norte 22 Norte 0 -- -- 48
2020-05-25 16:00:00 28.4 8 Norte 15 Norte 0 -- -- 53
2020-05-25 15:00:00 27.2 6 Noroeste 11 Oeste 0 -- -- 58
2020-05-25 14:00:00 25.7 4 Noroeste 12 Oeste 0 -- -- 62
2020-05-25 13:00:00 23.6 6 Noroeste 13 Noroeste 0 -- -- 64
2020-05-25 12:00:00 23.5 7 Norte 12 Norte 0 -- -- 66
2020-05-25 11:00:00 22.2 4 Nordeste 9 Nordeste 0 -- -- 69
2020-05-25 10:00:00 20.6 3 Nordeste 8 Nordeste 0 -- -- 73
2020-05-25 09:00:00 18.5 2 Norte 8 Este 0 -- -- 82
2020-05-25 08:00:00 16.4 2 Sudeste 6 Sudeste 0 -- -- 91
2020-05-25 07:00:00 16.2 2 Sudoeste 6 Norte 0 -- -- 91
2020-05-25 06:00:00 16.6 2 Nordeste 7 Nordeste 0 -- -- 89
2020-05-25 05:00:00 16.8 0 Calma 3 Nordeste 0 -- -- 90
2020-05-25 04:00:00 17.7 0 Calma 3 Nordeste 0 -- -- 85
2020-05-25 03:00:00 17.8 0 Calma 4 Sudeste 0 -- -- 83
2020-05-25 02:00:00 18.4 0 Calma 4 Oeste 0 -- -- 83
2020-05-25 01:00:00 18.3 0 Calma 4 Nordeste 0 -- -- 82
2020-05-25 00:00:00 18.8 0 Calma 4 Oeste 0 -- -- 79
2020-05-24 23:00:00 20.3 3 Oeste 7 Noroeste 0 -- -- 72
2020-05-24 22:00:00 21.9 0 Calma 7 Sur 0 -- -- 65
2020-05-24 21:00:00 23.4 2 Sudoeste 10 Noroeste 0 -- -- 58
2020-05-24 20:00:00 25.4 2 Sur 17 Sudoeste 0 -- -- 54
2020-05-24 19:00:00 26.1 4 Sur 15 Oeste 0 -- -- 54
2020-05-24 18:00:00 26.5 3 Oeste 17 Oeste 0 -- -- 53
2020-05-24 17:00:00 24.5 8 Sudoeste 21 Oeste 0 -- -- 59
2020-05-24 16:00:00 25.6 4 Sudoeste 15 Sudoeste 0 -- -- 60
2020-05-24 15:00:00 25.8 5 Oeste 16 Oeste 0 -- -- 58
2020-05-24 14:00:00 24.9 6 Oeste 15 Noroeste 0 -- -- 56
2020-05-24 13:00:00 23.9 6 Noroeste 11 Oeste 0 -- -- 55
2020-05-24 12:00:00 24 3 Nordeste 11 Este 0 -- -- 57
2020-05-24 11:00:00 22.4 4 Este 12 Este 0 -- -- 60
2020-05-24 10:00:00 19.4 4 Nordeste 17 Este 0 -- -- 68
2020-05-24 09:00:00 17 4 Nordeste 17 Este 0 -- -- 73
2020-05-24 08:00:00 14.5 4 Nordeste 11 Este 0 -- -- 81
2020-05-24 07:00:00 14.1 3 Nordeste 9 Nordeste 0 -- -- 82
2020-05-24 06:00:00 14.4 4 Nordeste 10 Nordeste 0 -- -- 79
2020-05-24 05:00:00 14.6 3 Este 10 Este 0 -- -- 78
2020-05-24 04:00:00 14.7 4 Nordeste 10 Nordeste 0 -- -- 75
2020-05-24 03:00:00 14.7 4 Nordeste 14 Este 0 -- -- 75
2020-05-24 02:00:00 15.4 4 Nordeste 15 Nordeste 0 -- -- 71
2020-05-24 01:00:00 16.1 6 Nordeste 19 Nordeste 0 -- -- 69
2020-05-24 00:00:00 16.9 5 Nordeste 23 Norte 0 -- -- 68
2020-05-23 23:00:00 18 7 Nordeste 32 Nordeste 0 -- -- 65
2020-05-23 22:00:00 19.4 11 Nordeste 39 Nordeste 0 -- -- 60
2020-05-23 21:00:00 21 14 Nordeste 36 Nordeste 0 -- -- 58
2020-05-23 20:00:00 23.2 8 Norte 31 Norte 0 -- -- 55
2020-05-23 19:00:00 23.8 13 Norte 37 Norte 0 -- -- 54
2020-05-23 18:00:00 24.6 17 Norte 34 Norte 0 -- -- 48
2020-05-23 17:00:00 24.3 18 Norte 29 Nordeste 0 -- -- 45
2020-05-23 16:00:00 24.1 13 Norte 27 Nordeste 0 -- -- 47
2020-05-23 15:00:00 23.6 14 Norte 27 Nordeste 0 -- -- 46
2020-05-23 14:00:00 22.5 12 Norte 24 Norte 0 -- -- 50
2020-05-23 13:00:00 21.8 12 Norte 24 Norte 0 -- -- 52
2020-05-23 12:00:00 20.9 8 Norte 18 Norte 0 -- -- 53
2020-05-23 11:00:00 19.2 7 Nordeste 21 Nordeste 0 -- -- 58
2020-05-23 10:00:00 17.8 5 Nordeste 21 Nordeste 0 -- -- 66
2020-05-23 09:00:00 15.6 5 Nordeste 12 Norte 0 -- -- 75
2020-05-23 08:00:00 13.8 4 Nordeste 12 Nordeste 0 -- -- 85
2020-05-23 07:00:00 13.6 3 Nordeste 14 Nordeste 0 -- -- 88
2020-05-23 06:00:00 14 4 Nordeste 12 Norte 0 -- -- 89
2020-05-23 05:00:00 14.1 3 Sudeste 10 Norte 0 -- -- 93
2020-05-23 04:00:00 14.2 2 Oeste 5 Oeste 0 -- -- 95
2020-05-23 03:00:00 13.9 2 Sur 6 Sudeste 0 -- -- 93
2020-05-23 02:00:00 14.1 2 Sur 6 Sudeste 0 -- -- 92
2020-05-23 01:00:00 14.7 0 Calma 8 Oeste 0 -- -- 91
2020-05-23 00:00:00 15.2 3 Sudoeste 15 Noroeste 0 -- -- 89
2020-05-22 23:00:00 16 4 Noroeste 15 Norte 0 -- -- 85
2020-05-22 22:00:00 16.8 6 Nordeste 15 Norte 0 -- -- 88
2020-05-22 21:00:00 17.9 3 Sudoeste 14 Oeste 0 -- -- 87
2020-05-22 20:00:00 18.8 6 Oeste 15 Sudoeste 0 -- -- 84
2020-05-22 19:00:00 20.3 5 Oeste 17 Sudoeste 0 -- -- 82
2020-05-22 18:00:00 21 5 Oeste 14 Noroeste 0 -- -- 80
2020-05-22 17:00:00 20.6 6 Sudoeste 18 Oeste 0 -- -- 80
2020-05-22 16:00:00 20.4 6 Sudoeste 20 Oeste 0 -- -- 82
2020-05-22 15:00:00 20.8 7 Oeste 21 Oeste 0 -- -- 80
2020-05-22 14:00:00 21 6 Sudoeste 20 Oeste 0 -- -- 77
2020-05-22 13:00:00 20.4 6 Oeste 17 Oeste 0.2 -- -- 80
2020-05-22 12:00:00 19.7 3 Sudoeste 11 Noroeste 0 -- -- 82
2020-05-22 11:00:00 19.3 4 Noroeste 9 Este 0 -- -- 84
2020-05-22 10:00:00 18.7 4 Este 11 Este 0 -- -- 86
2020-05-22 09:00:00 17 4 Este 8 Sudeste 0 -- -- 96
2020-05-22 08:00:00 15.6 2 Sudeste 6 Noroeste 0.2 -- -- 99
2020-05-22 07:00:00 15.7 3 Oeste 9 Sudoeste 0.6 -- -- 99
2020-05-22 06:00:00 15.8 0 Calma 5 Sur 0.2 -- -- 98
2020-05-22 05:00:00 15.8 2 Sur 4 Sur 0 -- -- 96
2020-05-22 04:00:00 16.1 2 Norte 5 Sudoeste 0 -- -- 94
2020-05-22 03:00:00 16 0 Calma 5 Noroeste 0 -- -- 89
2020-05-22 02:00:00 15.8 0 Calma 7 Este 0 -- -- 90
2020-05-22 01:00:00 15.1 0 Calma 4 Norte 0 -- -- 94
2020-05-22 00:00:00 14.7 2 Este 4 Sudeste 0 -- -- 94
2020-05-21 23:00:00 15 2 Norte 6 Noroeste 0 -- -- 93
2020-05-21 22:00:00 15.7 0 Calma 8 Sudoeste 0 -- -- 89
2020-05-21 21:00:00 17 3 Sudoeste 20 Oeste 0 -- -- 84
2020-05-21 20:00:00 18.1 5 Sudoeste 18 Oeste 0 -- -- 78
2020-05-21 19:00:00 18 7 Sudoeste 21 Oeste 0 -- -- 80
2020-05-21 18:00:00 19.3 8 Sudoeste 22 Oeste 0 -- -- 78
2020-05-21 17:00:00 19.5 8 Oeste 22 Oeste 0 -- -- 76
2020-05-21 16:00:00 20 9 Oeste 21 Oeste 0 -- -- 74
2020-05-21 15:00:00 19.9 7 Oeste 22 Sudoeste 0 -- -- 77
2020-05-21 14:00:00 20 7 Oeste 23 Oeste 0 -- -- 77
2020-05-21 13:00:00 20.6 8 Noroeste 14 Sudoeste 0 -- -- 72
2020-05-21 12:00:00 19.2 6 Oeste 13 Oeste 0 -- -- 73
2020-05-21 11:00:00 18.6 5 Oeste 10 Oeste 0 -- -- 75
2020-05-21 10:00:00 18.1 3 Oeste 8 Oeste 0 -- -- 82
2020-05-21 09:00:00 15.7 3 Este 7 Sudeste 0 -- -- 89
2020-05-21 08:00:00 14.1 0 Calma 9 Nordeste 0 -- -- 95
2020-05-21 07:00:00 13.7 0 Calma 9 Oeste 0 -- -- 96
2020-05-21 06:00:00 13.7 3 Sudoeste 10 Sudoeste 0 -- -- 96
2020-05-21 05:00:00 13.6 0 Calma 4 Sudeste 0 -- -- 94
2020-05-21 04:00:00 13.8 2 Sur 3 Sur 0 -- -- 94
2020-05-21 03:00:00 14.1 0 Calma 10 Norte 0 -- -- 90
2020-05-21 02:00:00 14.2 4 Nordeste 10 Nordeste 0 -- -- 91
2020-05-21 01:00:00 14 3 Sudeste 6 Noroeste 0 -- -- 91
2020-05-21 00:00:00 14.2 0 Calma 7 Noroeste 0 -- -- 90
2020-05-20 23:00:00 14.6 2 Este 9 Oeste 0 -- -- 86
2020-05-20 22:00:00 15.3 0 Calma 6 Este 0 -- -- 81
2020-05-20 21:00:00 16.2 2 Sur 13 Sur 0 -- -- 77
2020-05-20 20:00:00 17.8 4 Sudoeste 16 Sudoeste 0 -- -- 73
2020-05-20 19:00:00 18.2 5 Sudoeste 21 Norte 0 -- -- 71
2020-05-20 18:00:00 18.8 5 Oeste 16 Noroeste 0 -- -- 72
2020-05-20 17:00:00 19.5 4 Sudoeste 24 Oeste 0 -- -- 68
2020-05-20 16:00:00 19.6 10 Sudoeste 27 Sudoeste 0 -- -- 73
2020-05-20 15:00:00 19.5 8 Sudoeste 18 Sudoeste 0 -- -- 76
2020-05-20 14:00:00 20.1 7 Oeste 19 Oeste 0 -- -- 73
2020-05-20 13:00:00 19.9 6 Oeste 12 Noroeste 0 -- -- 72
2020-05-20 12:00:00 18.9 5 Oeste 14 Noroeste 0 -- -- 75
2020-05-20 11:00:00 17.9 4 Oeste 11 Sudoeste 0 -- -- 78
2020-05-20 10:00:00 16.4 2 Sudoeste 10 Oeste 0 -- -- 87
2020-05-20 09:00:00 15.9 2 Noroeste 5 Oeste 0 -- -- 89
2020-05-20 08:00:00 15.3 0 Calma 3 Oeste 0 -- -- 92
2020-05-20 07:00:00 15 0 Calma 6 Sudoeste 0 -- -- 93
2020-05-20 06:00:00 14.2 0 Calma 5 Sur 0 -- -- 91
2020-05-20 05:00:00 13.7 0 Calma 4 Oeste 0 -- -- 87
2020-05-20 04:00:00 14.4 3 Noroeste 5 Sudeste 0 -- -- 91
2020-05-20 03:00:00 14.5 2 Sudeste 3 Sudeste 0 -- -- 89
2020-05-20 02:00:00 14.7 0 Calma 3 Sudoeste 0 -- -- 91
2020-05-20 01:00:00 15 0 Calma 4 Sur 0 -- -- 84
2020-05-20 00:00:00 16 2 Sur 8 Sur 0 -- -- 82
2020-05-19 23:00:00 16.8 3 Sudoeste 9 Oeste 0 -- -- 83
2020-05-19 22:00:00 18.4 0 Calma 6 Sudoeste 0 -- -- 66
2020-05-19 21:00:00 20.9 2 Sudoeste 11 Oeste 0 -- -- 49
2020-05-19 20:00:00 22.6 4 Oeste 11 Oeste 0 -- -- 55
2020-05-19 19:00:00 22.9 4 Sudoeste 12 Oeste 0 -- -- 49
2020-05-19 18:00:00 22.3 5 Sudoeste 19 Oeste 0 -- -- 56
2020-05-19 17:00:00 23.2 7 Oeste 17 Sudoeste 0 -- -- 54
2020-05-19 16:00:00 23.2 5 Sudoeste 15 Oeste 0 -- -- 58
2020-05-19 15:00:00 22.8 6 Oeste 13 Sudoeste 0 -- -- 62
2020-05-19 14:00:00 22.2 9 Oeste 18 Oeste 0 -- -- 62
2020-05-19 13:00:00 22.1 5 Oeste 12 Oeste 0 -- -- 57
2020-05-19 12:00:00 20.5 6 Oeste 13 Oeste 0 -- -- 64
2020-05-19 11:00:00 21 4 Oeste 7 Noroeste 0 -- -- 58
2020-05-19 10:00:00 18.6 2 Nordeste 6 Nordeste 0 -- -- 71
2020-05-19 09:00:00 16.7 2 Nordeste 7 Este 0 -- -- 76
2020-05-19 08:00:00 13.4 0 Calma 2 Sudeste 0 -- -- 84
2020-05-19 07:00:00 13.1 0 Calma 2 Nordeste 0 -- -- 90
2020-05-19 06:00:00 13.3 0 Calma 3 Norte 0 -- -- 90
2020-05-19 05:00:00 13.6 0 Calma 5 Norte 0 -- -- 87
2020-05-19 04:00:00 13.5 0 Calma 4 Sudeste 0 -- -- 87
2020-05-19 03:00:00 13.6 0 Calma 4 Nordeste 0 -- -- 90
2020-05-19 02:00:00 13.9 0 Calma 3 Norte 0 -- -- 86
2020-05-19 01:00:00 14.3 0 Calma 3 Nordeste 0 -- -- 83
2020-05-19 00:00:00 15.1 0 Calma 4 Oeste 0 -- -- 86
2020-05-18 23:00:00 15.6 0 Calma 6 Oeste 0 -- -- 76
2020-05-18 22:00:00 16.8 3 Sudoeste 10 Sudoeste 0 -- -- 74
2020-05-18 21:00:00 19 4 Sudoeste 14 Sudoeste 0 -- -- 65
2020-05-18 20:00:00 21.1 5 Sudoeste 16 Oeste 0 -- -- 54
2020-05-18 19:00:00 21.6 6 Sudoeste 19 Oeste 0 -- -- 51
2020-05-18 18:00:00 21.9 5 Sudoeste 18 Oeste 0 -- -- 56
2020-05-18 17:00:00 21.9 6 Sudoeste 18 Sudoeste 0 -- -- 61
2020-05-18 16:00:00 22.4 6 Sudoeste 16 Oeste 0 -- -- 61
2020-05-18 15:00:00 23.8 4 Sudoeste 14 Oeste 0 -- -- 62
2020-05-18 14:00:00 23.2 4 Sudoeste 13 Sudoeste 0 -- -- 55
2020-05-18 13:00:00 22.7 5 Oeste 12 Oeste 0 -- -- 58
2020-05-18 12:00:00 21.3 6 Oeste 10 Oeste 0 -- -- 59
2020-05-18 11:00:00 20.3 3 Norte 6 Nordeste 0 -- -- 66
2020-05-18 10:00:00 18.7 0 Calma 5 Nordeste 0 -- -- 71
2020-05-18 09:00:00 16.5 2 Nordeste 6 Nordeste 0 -- -- 78
2020-05-18 08:00:00 13.8 0 Calma 5 Nordeste 0 -- -- 87
2020-05-18 07:00:00 13.3 0 Calma 5 Sudeste 0 -- -- 90
2020-05-18 06:00:00 13.4 0 Calma 4 Norte 0 -- -- 91
2020-05-18 05:00:00 13.6 0 Calma 4 Norte 0 -- -- 89
2020-05-18 04:00:00 13.9 0 Calma 2 Oeste 0 -- -- 91
2020-05-18 03:00:00 14.1 0 Calma 3 Norte 0 -- -- 89
2020-05-18 02:00:00 14.5 0 Calma 3 Este 0 -- -- 91
2020-05-18 01:00:00 14.8 2 Sudeste 4 Sudeste 0 -- -- 83
2020-05-18 00:00:00 15.5 2 Sur 4 Sudoeste 0 -- -- 81
2020-05-17 23:00:00 16.2 0 Calma 3 Sur 0 -- -- 79
2020-05-17 22:00:00 17.6 0 Calma 9 Oeste 0 -- -- 72
2020-05-17 21:00:00 19.2 4 Sudoeste 17 Oeste 0 -- -- 63
2020-05-17 20:00:00 21.6 3 Sudoeste 13 Oeste 0 -- -- 51
2020-05-17 19:00:00 21.6 5 Sudoeste 17 Sudoeste 0 -- -- 57
2020-05-17 18:00:00 21.6 6 Sudoeste 19 Sudoeste 0 -- -- 59
2020-05-17 17:00:00 21.9 6 Sudoeste 17 Oeste 0 -- -- 61
2020-05-17 16:00:00 22 7 Sudoeste 18 Sudoeste 0 -- -- 59
2020-05-17 15:00:00 21.7 7 Oeste 18 Oeste 0 -- -- 57
2020-05-17 14:00:00 22 6 Oeste 17 Oeste 0 -- -- 60
2020-05-17 13:00:00 21.6 6 Oeste 14 Oeste 0 -- -- 56
2020-05-17 12:00:00 21.6 5 Noroeste 9 Noroeste 0 -- -- 55
2020-05-17 11:00:00 20.5 3 Nordeste 8 Nordeste 0 -- -- 62
2020-05-17 10:00:00 18 3 Nordeste 10 Este 0 -- -- 68
2020-05-17 09:00:00 17.1 4 Este 12 Este 0 -- -- 70
2020-05-17 08:00:00 14.6 4 Nordeste 10 Nordeste 0 -- -- 77
2020-05-17 07:00:00 14.4 4 Este 11 Este 0 -- -- 79
2020-05-17 06:00:00 14.6 4 Nordeste 9 Nordeste 0 -- -- 77
2020-05-17 05:00:00 15 3 Nordeste 13 Este 0 -- -- 77
2020-05-17 04:00:00 15.4 5 Este 13 Nordeste 0 -- -- 75
2020-05-17 03:00:00 15.8 3 Nordeste 10 Este 0 -- -- 71
2020-05-17 02:00:00 16.3 3 Nordeste 10 Este 0 -- -- 69
2020-05-17 01:00:00 16.7 3 Nordeste 9 Nordeste 0 -- -- 70
2020-05-17 00:00:00 17.7 4 Nordeste 17 Nordeste 0 -- -- 67
2020-05-16 23:00:00 18.6 5 Nordeste 16 Norte 0 -- -- 66
2020-05-16 22:00:00 20.1 8 Norte 26 Norte 0 -- -- 57
2020-05-16 21:00:00 21.7 5 Norte 14 Norte 0 -- -- 50
2020-05-16 20:00:00 23.5 4 Noroeste 12 Oeste 0 -- -- 49
2020-05-16 19:00:00 23.1 4 Sudoeste 13 Oeste 0 -- -- 53
2020-05-16 18:00:00 22.8 5 Norte 15 Norte 0 -- -- 56
2020-05-16 17:00:00 23.1 5 Nordeste 22 Oeste 0 -- -- 55
2020-05-16 16:00:00 22.8 5 Norte 16 Norte 0 -- -- 53
2020-05-16 15:00:00 22.3 6 Noroeste 18 Oeste 0 -- -- 55
2020-05-16 14:00:00 20.9 7 Norte 13 Norte 0 -- -- 54
2020-05-16 13:00:00 20.2 5 Noroeste 10 Norte 0 -- -- 57
2020-05-16 12:00:00 19.3 3 Nordeste 12 Este 0 -- -- 62
2020-05-16 11:00:00 17.7 6 Este 12 Este 0 -- -- 61
2020-05-16 10:00:00 15.7 5 Nordeste 16 Este 0 -- -- 67
2020-05-16 09:00:00 13.4 4 Este 14 Nordeste 0 -- -- 73
2020-05-16 08:00:00 11.1 4 Nordeste 12 Nordeste 0 -- -- 80
2020-05-16 07:00:00 10.9 4 Este 11 Nordeste 0 -- -- 81
2020-05-16 06:00:00 11.3 7 Este 18 Este 0 -- -- 78
2020-05-16 05:00:00 11.6 6 Nordeste 17 Nordeste 0 -- -- 78
2020-05-16 04:00:00 12 5 Este 18 Nordeste 0 -- -- 78
2020-05-16 03:00:00 12.2 5 Nordeste 16 Este 0 -- -- 77
2020-05-16 02:00:00 12.6 5 Nordeste 21 Nordeste 0 -- -- 75
2020-05-16 01:00:00 13.2 6 Este 20 Nordeste 0 -- -- 73
2020-05-16 00:00:00 13.8 8 Nordeste 25 Nordeste 0 -- -- 71
2020-05-15 23:00:00 14.5 6 Nordeste 30 Norte 0 -- -- 69
2020-05-15 22:00:00 15.7 11 Nordeste 35 Nordeste 0 -- -- 65
2020-05-15 21:00:00 17.5 10 Nordeste 30 Nordeste 0 -- -- 60
2020-05-15 20:00:00 20.2 11 Nordeste 28 Norte 0 -- -- 55
2020-05-15 19:00:00 21.9 8 Norte 26 Nordeste 0 -- -- 52
2020-05-15 18:00:00 22.1 9 Nordeste 26 Nordeste 0 -- -- 53
2020-05-15 17:00:00 21.8 8 Nordeste 26 Nordeste 0 -- -- 53
2020-05-15 16:00:00 21.4 9 Nordeste 26 Nordeste 0 -- -- 59
2020-05-15 15:00:00 20.3 9 Nordeste 27 Nordeste 0 -- -- 58
2020-05-15 14:00:00 20.6 10 Nordeste 26 Norte 0 -- -- 60
2020-05-15 13:00:00 20.3 10 Nordeste 26 Nordeste 0 -- -- 62
2020-05-15 12:00:00 18 9 Nordeste 26 Nordeste 0 -- -- 64
2020-05-15 11:00:00 17.5 7 Nordeste 17 Norte 0 -- -- 69
2020-05-15 10:00:00 15.8 6 Nordeste 17 Nordeste 0.2 -- -- 72
2020-05-15 09:00:00 13.1 5 Este 14 Nordeste 0 -- -- 82
2020-05-15 08:00:00 12 4 Este 15 Este 0 -- -- 83
2020-05-15 07:00:00 11.8 4 Este 15 Este 0 -- -- 83
2020-05-15 06:00:00 11.9 4 Este 13 Este 0 -- -- 85
2020-05-15 05:00:00 12.3 5 Nordeste 16 Norte 0 -- -- 83
2020-05-15 04:00:00 12.5 5 Nordeste 17 Este 0 -- -- 83
2020-05-15 03:00:00 12.6 5 Nordeste 13 Este 0 -- -- 83
2020-05-15 02:00:00 12.8 4 Este 14 Nordeste 0 -- -- 83
2020-05-15 01:00:00 13.2 4 Nordeste 20 Nordeste 0 -- -- 82
2020-05-15 00:00:00 13.5 5 Nordeste 14 Nordeste 0 -- -- 83
2020-05-14 23:00:00 14 5 Este 21 Norte 0 -- -- 84
2020-05-14 22:00:00 14.6 8 Nordeste 23 Nordeste 0 -- -- 82
2020-05-14 21:00:00 15.1 2 Norte 4 Norte 0 -- -- 95
2020-05-14 20:00:00 15.2 0 Calma 5 Sudeste 0 -- -- 95
2020-05-14 19:00:00 15 0 Calma 8 Sudoeste 0 -- -- 97
2020-05-14 18:00:00 13.9 0 Calma 9 Sudeste 2.4 -- -- 99
2020-05-14 17:00:00 13.5 3 Sur 10 Sudoeste 6.4 -- -- 97
2020-05-14 16:00:00 14.1 3 Sur 13 Sudoeste 0 -- -- 93
2020-05-14 15:00:00 14.3 4 Sudoeste 14 Oeste 0 -- -- 90
2020-05-14 14:00:00 14.4 4 Sudoeste 13 Oeste 0 -- -- 86
2020-05-14 13:00:00 15.5 4 Oeste 13 Norte 0 -- -- 83
2020-05-14 12:00:00 14.9 3 Norte 7 Norte 0 -- -- 90
2020-05-14 11:00:00 13.3 0 Calma 12 Este 0 -- -- 92
2020-05-14 10:00:00 13.3 2 Sur 7 Sur 0 -- -- 95
2020-05-14 09:00:00 13.3 3 Sur 9 Sur 0 -- -- 96
2020-05-14 08:00:00 13.1 2 Oeste 9 Sudeste 0 -- -- 96
2020-05-14 07:00:00 12.9 3 Este 9 Sudeste 0 -- -- 96
2020-05-14 06:00:00 12.6 3 Este 8 Este 0 -- -- 99
2020-05-14 05:00:00 12 2 Sur 6 Nordeste 0 -- -- 99
2020-05-14 04:00:00 12.2 0 Calma 5 Nordeste 0 -- -- 99
2020-05-14 03:00:00 12.3 0 Calma 6 Este 0 -- -- 98
2020-05-14 02:00:00 12.7 2 Nordeste 7 Este 0 -- -- 99
2020-05-14 01:00:00 12.7 2 Sudeste 5 Sudeste 0 -- -- 99
2020-05-14 00:00:00 13.1 0 Calma 4 Nordeste 0 -- -- 98
2020-05-13 23:00:00 13.6 0 Calma 6 Norte 0 -- -- 97
2020-05-13 22:00:00 14.2 3 Norte 9 Norte 0 -- -- 95
2020-05-13 21:00:00 14 3 Oeste 8 Oeste 0 -- -- 95
2020-05-13 20:00:00 13.9 3 Norte 10 Noroeste 2.4 -- -- 95
2020-05-13 19:00:00 15.5 6 Sudoeste 21 Oeste 1.2 -- -- 88
2020-05-13 18:00:00 18.6 6 Sudoeste 20 Sur 0 -- -- 72
2020-05-13 17:00:00 17.7 6 Sudoeste 24 Oeste 0 -- -- 75
2020-05-13 16:00:00 19 9 Sudoeste 24 Oeste 0 -- -- 70
2020-05-13 15:00:00 18.7 6 Oeste 20 Oeste 0 -- -- 69
2020-05-13 14:00:00 18.8 5 Noroeste 17 Noroeste 0 -- -- 62
2020-05-13 13:00:00 18.5 3 Oeste 11 Sur 0 -- -- 66
2020-05-13 12:00:00 17.3 3 Sur 11 Este 0 -- -- 71
2020-05-13 11:00:00 14.8 4 Este 9 Este 0 -- -- 81
2020-05-13 10:00:00 14.6 3 Este 12 Sudeste 0 -- -- 85
2020-05-13 09:00:00 14.2 3 Este 17 Este 0 -- -- 87
2020-05-13 08:00:00 12.7 4 Sudeste 12 Este 0 -- -- 91
2020-05-13 07:00:00 12.3 2 Este 7 Este 0 -- -- 90
2020-05-13 06:00:00 12.5 3 Este 12 Este 0 -- -- 92
2020-05-13 05:00:00 12.3 0 Calma 6 Sudeste 0 -- -- 95
2020-05-13 04:00:00 12.6 0 Calma 5 Sudeste 0 -- -- 95
2020-05-13 03:00:00 13.2 0 Calma 6 Sur 0 -- -- 94
2020-05-13 02:00:00 13.8 0 Calma 5 Sur 0 -- -- 91
2020-05-13 01:00:00 14.3 0 Calma 4 Sur 0 -- -- 91
2020-05-13 00:00:00 14.2 0 Calma 2 Sur 0 -- -- 91
2020-05-12 23:00:00 14.7 0 Calma 5 Sudoeste 0 -- -- 88
2020-05-12 22:00:00 15.6 2 Sudoeste 6 Noroeste 0 -- -- 81
2020-05-12 21:00:00 16.6 0 Calma 9 Sudoeste 0 -- -- 76
2020-05-12 20:00:00 18 3 Sudoeste 13 Sudoeste 0 -- -- 77
2020-05-12 19:00:00 17.9 3 Oeste 16 Oeste 0 -- -- 75
2020-05-12 18:00:00 19.5 5 Noroeste 15 Oeste 0 -- -- 70
2020-05-12 17:00:00 19.1 5 Sudoeste 19 Oeste 0 -- -- 72
2020-05-12 16:00:00 18.1 7 Sudoeste 19 Sudoeste 0 -- -- 79
2020-05-12 15:00:00 18.6 7 Sudoeste 19 Sudoeste 0 -- -- 77
2020-05-12 14:00:00 18.8 5 Sudoeste 15 Oeste 0 -- -- 77
2020-05-12 13:00:00 18.3 4 Oeste 13 Oeste 0 -- -- 77
2020-05-12 12:00:00 16.8 4 Norte 10 Nordeste 0 -- -- 79
2020-05-12 11:00:00 16.1 4 Norte 9 Norte 0 -- -- 85
2020-05-12 10:00:00 15.8 4 Nordeste 6 Noroeste 0 -- -- 90
2020-05-12 09:00:00 14.6 2 Sur 7 Sur 0 -- -- 93
2020-05-12 08:00:00 14.1 0 Calma 8 Sur 0 -- -- 93
2020-05-12 07:00:00 14 4 Sur 10 Sur 0 -- -- 93
2020-05-12 06:00:00 14.4 0 Calma 4 Sur 0 -- -- 92
2020-05-12 05:00:00 14.7 0 Calma 5 Este 0 -- -- 92
2020-05-12 04:00:00 14.7 0 Calma 6 Sudeste 0 -- -- 91
2020-05-12 03:00:00 14.7 0 Calma 5 Sudoeste 0 -- -- 94
2020-05-12 02:00:00 14.9 0 Calma 5 Sur 0 -- -- 93
2020-05-12 01:00:00 15.1 3 Sur 9 Sur 0 -- -- 95
2020-05-12 00:00:00 14.7 3 Nordeste 8 Norte 0 -- -- 93
2020-05-11 23:00:00 14.6 0 Calma 4 Nordeste 0.2 -- -- 95
2020-05-11 22:00:00 14.9 0 Calma 6 Sudoeste 2 -- -- 91
2020-05-11 21:00:00 17.2 3 Sur 10 Sudoeste 0 -- -- 75
2020-05-11 20:00:00 18.8 4 Sudoeste 17 Oeste 0 -- -- 66
2020-05-11 19:00:00 20.8 6 Sudoeste 19 Sudoeste 0 -- -- 63
2020-05-11 18:00:00 20.3 5 Sudoeste 19 Sudoeste 0 -- -- 66
2020-05-11 17:00:00 20.8 5 Oeste 15 Oeste 0 -- -- 63
2020-05-11 16:00:00 20.4 6 Noroeste 17 Norte 0 -- -- 65
2020-05-11 15:00:00 19.7 3 Noroeste 12 Oeste 0 -- -- 64
2020-05-11 14:00:00 20.2 4 Oeste 15 Nordeste 0 -- -- 59
2020-05-11 13:00:00 20.3 3 Noroeste 17 Norte 0 -- -- 58
2020-05-11 12:00:00 19.8 5 Nordeste 12 Este 0 -- -- 58
2020-05-11 11:00:00 17.5 3 Este 8 Este 0 -- -- 69
2020-05-11 10:00:00 16.4 4 Sudeste 13 Este 0 -- -- 74
2020-05-11 09:00:00 16.8 4 Este 14 Este 0 -- -- 71
2020-05-11 08:00:00 13.9 4 Este 12 Este 0 -- -- 82
2020-05-11 07:00:00 13.7 0 Calma 15 Este 0 -- -- 82
2020-05-11 06:00:00 13.6 7 Este 23 Este 0 -- -- 85
2020-05-11 05:00:00 13.5 7 Este 24 Este 0 -- -- 88
2020-05-11 04:00:00 13.6 4 Sur 12 Este 0 -- -- 88
2020-05-11 03:00:00 13.4 4 Sur 13 Sur 0 -- -- 89
2020-05-11 02:00:00 13.6 0 Calma 6 Sudoeste 0 -- -- 87
2020-05-11 01:00:00 14.2 2 Sudoeste 11 Sur 0 -- -- 82
2020-05-11 00:00:00 13.7 0 Calma 9 Sudeste 0 -- -- 81
2020-05-10 23:00:00 13.9 2 Este 11 Sudeste 0 -- -- 78
2020-05-10 22:00:00 14.6 2 Sur 11 Sudoeste 0 -- -- 76
2020-05-10 21:00:00 16.2 3 Sudoeste 15 Sudoeste 0 -- -- 74
2020-05-10 20:00:00 18.1 4 Oeste 18 Oeste 0 -- -- 69
2020-05-10 19:00:00 18.2 4 Oeste 21 Noroeste 0 -- -- 70
2020-05-10 18:00:00 17.7 8 Sudoeste 24 Sudoeste 0 -- -- 73
2020-05-10 17:00:00 17.6 8 Oeste 19 Sur 0 -- -- 70
2020-05-10 16:00:00 17.4 6 Sudoeste 19 Oeste 0 -- -- 75
2020-05-10 15:00:00 17.2 6 Sudoeste 23 Sudoeste 0 -- -- 77
2020-05-10 14:00:00 17.4 5 Sudoeste 18 Sudoeste 0 -- -- 77
2020-05-10 13:00:00 17.5 6 Sudoeste 18 Oeste 0 -- -- 76
2020-05-10 12:00:00 16.3 3 Este 13 Sur 0 -- -- 74
2020-05-10 11:00:00 16.4 5 Sudeste 15 Sudeste 0 -- -- 76
2020-05-10 10:00:00 15 4 Este 10 Sudeste 0 -- -- 83
2020-05-10 09:00:00 12.8 2 Sudeste 6 Nordeste 0 -- -- 90
2020-05-10 08:00:00 10.9 3 Sudeste 8 Sudeste 0 -- -- 97
2020-05-10 07:00:00 10.8 0 Calma 6 Sudeste 0 -- -- 96
2020-05-10 06:00:00 11.2 3 Sur 7 Sudeste 0 -- -- 96
2020-05-10 05:00:00 11.5 0 Calma 7 Sur 0 -- -- 95
2020-05-10 04:00:00 11.8 3 Sur 6 Sudeste 0 -- -- 95
2020-05-10 03:00:00 11.8 0 Calma 8 Sur 0 -- -- 94
2020-05-10 02:00:00 12 3 Sur 9 Sudeste 0 -- -- 95
2020-05-10 01:00:00 12.3 4 Sur 9 Sudeste 0 -- -- 95
2020-05-10 00:00:00 12.6 3 Sur 10 Sudeste 0 -- -- 94
2020-05-09 23:00:00 12.5 3 Sur 10 Sur 0 -- -- 95
2020-05-09 22:00:00 12.7 0 Calma 8 Sur 0 -- -- 94
2020-05-09 21:00:00 13.2 0 Calma 4 Sur 0.2 -- -- 95
2020-05-09 20:00:00 13.2 0 Calma 13 Sudeste 1.8 -- -- 94
2020-05-09 19:00:00 13.8 4 Sudeste 13 Este 0.6 -- -- 92
2020-05-09 18:00:00 14.9 3 Sudeste 11 Sudeste 0.4 -- -- 89
2020-05-09 17:00:00 14.8 3 Noroeste 6 Sudoeste 0 -- -- 84
2020-05-09 16:00:00 15.3 5 Este 13 Este 0 -- -- 87
2020-05-09 15:00:00 14.5 4 Sur 13 Sudeste 0.2 -- -- 88
2020-05-09 14:00:00 14.1 5 Sur 20 Sur 1 -- -- 91
2020-05-09 13:00:00 16.5 6 Sur 28 Sur 0 -- -- 75
2020-05-09 12:00:00 17.4 9 Sur 27 Sur 0 -- -- 69
2020-05-09 11:00:00 16.3 5 Sur 24 Sudeste 0 -- -- 75
2020-05-09 10:00:00 15.7 5 Sudeste 17 Sudeste 0 -- -- 80
2020-05-09 09:00:00 14.7 3 Sur 12 Sur 0 -- -- 84
2020-05-09 08:00:00 13.3 2 Sur 6 Sudeste 0 -- -- 88
2020-05-09 07:00:00 13.9 3 Sur 10 Sur 0 -- -- 85
2020-05-09 06:00:00 14.1 5 Sur 10 Sur 0 -- -- 85
2020-05-09 05:00:00 14.3 3 Sur 6 Sur 0 -- -- 84
2020-05-09 04:00:00 14.4 2 Sur 6 Sudoeste 0 -- -- 84
2020-05-09 03:00:00 14.4 3 Sudoeste 12 Oeste 0 -- -- 85
2020-05-09 02:00:00 14.4 2 Sudoeste 10 Sur 0 -- -- 90
2020-05-09 01:00:00 14.5 0 Calma 9 Sudoeste 0 -- -- 88
2020-05-09 00:00:00 14.7 3 Sudoeste 11 Oeste 0 -- -- 91
2020-05-08 23:00:00 14.8 3 Sur 12 Oeste 0 -- -- 90
2020-05-08 22:00:00 14.9 3 Sudoeste 13 Sur 0 -- -- 90
2020-05-08 21:00:00 15.4 4 Sudoeste 14 Oeste 0 -- -- 89
2020-05-08 20:00:00 16.1 4 Oeste 15 Oeste 0 -- -- 86
2020-05-08 19:00:00 16.5 4 Oeste 13 Noroeste 0 -- -- 84
2020-05-08 18:00:00 17.5 5 Noroeste 19 Sudoeste 0 -- -- 82
2020-05-08 17:00:00 18.5 7 Sudoeste 23 Oeste 0 -- -- 77
2020-05-08 16:00:00 16.6 8 Oeste 23 Sudoeste 0 -- -- 84
2020-05-08 15:00:00 17.7 6 Sudoeste 21 Sudoeste 0 -- -- 83
2020-05-08 14:00:00 18.2 5 Sudoeste 17 Oeste 0 -- -- 81
2020-05-08 13:00:00 17.9 6 Sudoeste 17 Oeste 0 -- -- 84
2020-05-08 12:00:00 17.7 4 Noroeste 12 Noroeste 0 -- -- 84
2020-05-08 11:00:00 16.4 2 Norte 8 Oeste 0 -- -- 88
2020-05-08 10:00:00 15.7 3 Noroeste 5 Norte 0 -- -- 91
2020-05-08 09:00:00 15.5 0 Calma 5 Noroeste 0 -- -- 92
2020-05-08 08:00:00 15.2 0 Calma 5 Sur 0 -- -- 95
2020-05-08 07:00:00 15.3 0 Calma 6 Este 0 -- -- 95
2020-05-08 06:00:00 15.3 2 Sur 6 Oeste 0 -- -- 96
2020-05-08 05:00:00 15.5 0 Calma 10 Sudoeste 0 -- -- 97
2020-05-08 04:00:00 15.6 3 Sur 15 Oeste 0 -- -- 97
2020-05-08 03:00:00 16.1 7 Sudoeste 17 Oeste 0 -- -- 96
2020-05-08 02:00:00 17.1 3 Nordeste 8 Norte 0 -- -- 91
2020-05-08 01:00:00 16.9 2 Nordeste 6 Nordeste 0 -- -- 93
2020-05-08 00:00:00 16.8 2 Este 4 Sudoeste 0 -- -- 93
2020-05-07 23:00:00 17.3 0 Calma 9 Noroeste 0 -- -- 90
2020-05-07 22:00:00 18.3 0 Calma 9 Sudoeste 0 -- -- 85
2020-05-07 21:00:00 20.3 2 Sudoeste 9 Sudoeste 0 -- -- 76
2020-05-07 20:00:00 22.6 4 Sudoeste 11 Sur 0 -- -- 66
2020-05-07 19:00:00 24.3 3 Sudoeste 11 Oeste 0 -- -- 64
2020-05-07 18:00:00 23.6 5 Sudoeste 16 Sudoeste 0 -- -- 63
2020-05-07 17:00:00 22.6 5 Sudoeste 17 Sudoeste 0 -- -- 68
2020-05-07 16:00:00 23.4 4 Sudoeste 13 Oeste 0 -- -- 65
2020-05-07 15:00:00 22.8 5 Oeste 13 Oeste 0 -- -- 64
2020-05-07 14:00:00 21.1 5 Oeste 14 Oeste 0 -- -- 69
2020-05-07 13:00:00 19.3 6 Oeste 9 Oeste 0 -- -- 72
2020-05-07 12:00:00 19 3 Norte 9 Norte 0 -- -- 75
2020-05-07 11:00:00 18.4 2 Nordeste 7 Sudeste 0 -- -- 78
2020-05-07 10:00:00 15.8 0 Calma 7 Este 0 -- -- 88
2020-05-07 09:00:00 14.2 3 Este 8 Nordeste 0 -- -- 93
2020-05-07 08:00:00 13 0 Calma 6 Nordeste 0 -- -- 99
2020-05-07 07:00:00 13 0 Calma 5 Norte 0 -- -- 99
2020-05-07 06:00:00 13.1 0 Calma 4 Sur 0 -- -- 98
2020-05-07 05:00:00 13.4 0 Calma 3 Sur 0 -- -- 98
2020-05-07 04:00:00 13.8 0 Calma 4 Sudeste 0 -- -- 97
2020-05-07 03:00:00 14.3 0 Calma 5 Nordeste 0 -- -- 96
2020-05-07 02:00:00 14.5 2 Nordeste 8 Nordeste 0 -- -- 94
2020-05-07 01:00:00 14.6 0 Calma 4 Oeste 0 -- -- 96
2020-05-07 00:00:00 14.9 0 Calma 3 Oeste 0 -- -- 95
2020-05-06 23:00:00 15.2 0 Calma 5 Oeste 0 -- -- 93
2020-05-06 22:00:00 15.6 0 Calma 7 Sudoeste 0 -- -- 93
2020-05-06 21:00:00 16.4 3 Sudoeste 13 Noroeste 0 -- -- 88
2020-05-06 20:00:00 18.6 6 Oeste 19 Oeste 0 -- -- 80
2020-05-06 19:00:00 19.5 4 Sudoeste 22 Oeste 0 -- -- 75
2020-05-06 18:00:00 19.8 8 Sudoeste 22 Oeste 0 -- -- 73
2020-05-06 17:00:00 20.2 7 Sudoeste 29 Oeste 0 -- -- 71
2020-05-06 16:00:00 20 7 Sudoeste 20 Sudoeste 0 -- -- 70
2020-05-06 15:00:00 19.9 7 Sudoeste 22 Sudoeste 0 -- -- 70
2020-05-06 14:00:00 19.9 5 Sudoeste 17 Sur 0 -- -- 74
2020-05-06 13:00:00 20.3 5 Sur 16 Sudoeste 0 -- -- 68
2020-05-06 12:00:00 18.5 5 Sur 18 Sudoeste 0 -- -- 72
2020-05-06 11:00:00 17.7 4 Sudeste 13 Este 0 -- -- 76
2020-05-06 10:00:00 16.2 3 Este 18 Sudeste 0 -- -- 82
2020-05-06 09:00:00 15 7 Sudeste 18 Sudeste 0 -- -- 86
2020-05-06 08:00:00 13.3 3 Sudeste 10 Sudeste 0 -- -- 94
2020-05-06 07:00:00 13.3 0 Calma 8 Sudeste 0 -- -- 93
2020-05-06 06:00:00 13.6 2 Sudeste 9 Sudeste 0 -- -- 93
2020-05-06 05:00:00 14.2 3 Sudeste 9 Sudeste 0 -- -- 93
2020-05-06 04:00:00 13.9 0 Calma 9 Sur 0 -- -- 92
2020-05-06 03:00:00 14.2 4 Sur 13 Sur 0 -- -- 93
2020-05-06 02:00:00 15 4 Sur 12 Sudeste 0.6 -- -- 92
2020-05-06 01:00:00 15.3 4 Sur 10 Sur 0 -- -- 87
2020-05-06 00:00:00 15.3 5 Sur 13 Sur 0 -- -- 87
2020-05-05 23:00:00 15.1 4 Sur 10 Sur 0 -- -- 88
2020-05-05 22:00:00 15.7 4 Sur 13 Sur 0 -- -- 82
2020-05-05 21:00:00 17 5 Sur 13 Sur 0 -- -- 75
2020-05-05 20:00:00 18 5 Sudoeste 18 Sudoeste 0 -- -- 71
2020-05-05 19:00:00 20.1 7 Sur 22 Oeste 0 -- -- 64
2020-05-05 18:00:00 19 8 Sur 23 Sudoeste 0 -- -- 68
2020-05-05 17:00:00 18.9 10 Sur 26 Sudoeste 0 -- -- 68
2020-05-05 16:00:00 20.4 9 Sur 24 Sur 0 -- -- 65
2020-05-05 15:00:00 19.9 8 Sur 27 Sudoeste 0 -- -- 70
2020-05-05 14:00:00 19.3 9 Sur 19 Sur 0 -- -- 69
2020-05-05 13:00:00 18.2 5 Sur 24 Sudoeste 0 -- -- 77
2020-05-05 12:00:00 17.3 5 Sur 15 Sur 0 -- -- 81
2020-05-05 11:00:00 16.6 7 Sur 20 Sur 0 -- -- 81
2020-05-05 10:00:00 16 6 Sur 21 Sudeste 0 -- -- 83
2020-05-05 09:00:00 14.9 6 Sur 15 Sur 0 -- -- 87
2020-05-05 08:00:00 13.7 3 Sudeste 12 Sudeste 0 -- -- 91
2020-05-05 07:00:00 13.3 4 Sur 14 Sudeste 0 -- -- 92
2020-05-05 06:00:00 13.5 4 Sur 16 Sudoeste 0 -- -- 92
2020-05-05 05:00:00 13.6 3 Sur 8 Sudeste 0 -- -- 89
2020-05-05 04:00:00 13.9 0 Calma 12 Sur 0 -- -- 88
2020-05-05 03:00:00 14 0 Calma 14 Sur 0 -- -- 88
2020-05-05 02:00:00 14.7 4 Sur 18 Sur 0 -- -- 81
2020-05-05 01:00:00 15 8 Sudoeste 24 Oeste 0 -- -- 82
2020-05-05 00:00:00 15.2 6 Sudoeste 19 Sur 0.2 -- -- 86
2020-05-04 23:00:00 15.5 9 Sudoeste 24 Sur 0 -- -- 79
2020-05-04 22:00:00 16.3 9 Sudoeste 28 Sudoeste 0 -- -- 80
2020-05-04 21:00:00 16.6 12 Sudoeste 31 Sur 0 -- -- 77
2020-05-04 20:00:00 17.7 10 Sudoeste 25 Noroeste 0.2 -- -- 75
2020-05-04 19:00:00 18.7 9 Sudoeste 33 Sudoeste 0 -- -- 71
2020-05-04 18:00:00 19.4 11 Sur 30 Sudoeste 0 -- -- 72
2020-05-04 17:00:00 18.2 14 Sudoeste 28 Sudoeste 0 -- -- 76
2020-05-04 16:00:00 16.1 10 Sudoeste 30 Sur 2.6 -- -- 91
2020-05-04 15:00:00 17.8 13 Sur 39 Sudeste 0 -- -- 81
2020-05-04 14:00:00 21 12 Sur 31 Sudoeste 0 -- -- 67
2020-05-04 13:00:00 19.8 9 Sur 30 Sudeste 0 -- -- 72
2020-05-04 12:00:00 17.7 7 Sur 22 Sudoeste 0 -- -- 83
2020-05-04 11:00:00 18.7 6 Sur 17 Sudoeste 0 -- -- 83
2020-05-04 10:00:00 19.7 7 Sudeste 17 Norte 0 -- -- 81
2020-05-04 09:00:00 17.6 3 Nordeste 9 Este 0 -- -- 92
2020-05-04 08:00:00 16.4 2 Noroeste 9 Norte 0 -- -- 93
2020-05-04 07:00:00 17 3 Sudoeste 7 Sudeste 0 -- -- 83
2020-05-04 06:00:00 17.1 2 Nordeste 7 Nordeste 0 -- -- 83
2020-05-04 05:00:00 17.1 2 Este 6 Sur 0 -- -- 83
2020-05-04 04:00:00 17.5 3 Norte 8 Noroeste 0 -- -- 82
2020-05-04 03:00:00 18.9 4 Oeste 16 Oeste 0 -- -- 75
2020-05-04 02:00:00 20.6 5 Sudoeste 15 Sudoeste 0 -- -- 69
2020-05-04 01:00:00 21.4 3 Sur 7 Sur 0 -- -- 64
2020-05-04 00:00:00 21.6 0 Calma 7 Este 0 -- -- 67
2020-05-03 23:00:00 22.2 2 Este 6 Sudeste 0 -- -- 66
2020-05-03 22:00:00 23.2 3 Este 5 Este 0 -- -- 63
2020-05-03 21:00:00 25 0 Calma 6 Oeste 0 -- -- 54
2020-05-03 20:00:00 27.6 4 Noroeste 11 Oeste 0 -- -- 45
2020-05-03 19:00:00 28 2 Norte 12 Oeste 0 -- -- 45
2020-05-03 18:00:00 27 4 Oeste 12 Oeste 0 -- -- 52
2020-05-03 17:00:00 26.1 6 Oeste 15 Oeste 0 -- -- 52
2020-05-03 16:00:00 26.3 6 Noroeste 12 Noroeste 0 -- -- 49
2020-05-03 15:00:00 25.7 5 Norte 11 Norte 0 -- -- 50
2020-05-03 14:00:00 24.3 4 Norte 13 Norte 0 -- -- 53
2020-05-03 13:00:00 23.5 4 Este 15 Este 0 -- -- 58
2020-05-03 12:00:00 20.6 6 Este 17 Este 0 -- -- 70
2020-05-03 11:00:00 17.5 8 Este 16 Este 0 -- -- 79
2020-05-03 10:00:00 15 6 Este 18 Este 0 -- -- 90
2020-05-03 09:00:00 13.8 5 Este 16 Este 0 -- -- 98
2020-05-03 08:00:00 12.7 5 Este 17 Nordeste 0 -- -- 100
2020-05-03 07:00:00 12.8 4 Este 14 Este 0 -- -- 100
2020-05-03 06:00:00 13.3 6 Este 13 Este 0 -- -- 100
2020-05-03 05:00:00 13.7 4 Este 10 Este 0 -- -- 100
2020-05-03 04:00:00 13.5 4 Este 12 Este 0 -- -- 100
2020-05-03 03:00:00 13.2 2 Este 5 Sudeste 0 -- -- 100
2020-05-03 02:00:00 13.8 0 Calma 5 Nordeste 0 -- -- 99
2020-05-03 01:00:00 14.5 0 Calma 5 Nordeste 0 -- -- 98
2020-05-03 00:00:00 15.3 0 Calma 5 Nordeste 0 -- -- 98
2020-05-02 23:00:00 15.4 0 Calma 8 Oeste 0 -- -- 97
2020-05-02 22:00:00 15.9 2 Sudoeste 10 Noroeste 0 -- -- 95
2020-05-02 21:00:00 16.6 4 Oeste 12 Oeste 0 -- -- 93
2020-05-02 20:00:00 18.4 5 Noroeste 10 Sudoeste 0 -- -- 86
2020-05-02 19:00:00 19.2 3 Sur 19 Noroeste 0 -- -- 84
2020-05-02 18:00:00 18.9 5 Sudoeste 18 Sudoeste 0 -- -- 86
2020-05-02 17:00:00 20.1 5 Sudoeste 21 Sur 0 -- -- 83
2020-05-02 16:00:00 20.3 5 Sudoeste 15 Sur 0 -- -- 82
2020-05-02 15:00:00 20.2 4 Sudoeste 15 Sudoeste 0 -- -- 84
2020-05-02 14:00:00 19.7 4 Sur 14 Oeste 0 -- -- 84
2020-05-02 13:00:00 19.1 5 Sur 20 Oeste 0 -- -- 85
2020-05-02 12:00:00 18.2 3 Sur 11 Sudoeste 0 -- -- 91
2020-05-02 11:00:00 17 5 Sudoeste 12 Sudoeste 0 -- -- 95
2020-05-02 10:00:00 16.5 3 Sur 9 Sudoeste 0 -- -- 97
2020-05-02 09:00:00 15.9 3 Sur 12 Sur 0.2 -- -- 98
2020-05-02 08:00:00 15.7 5 Sur 15 Sudeste 0.2 -- -- 98
2020-05-02 07:00:00 15.6 3 Sur 11 Sur 0 -- -- 98
2020-05-02 06:00:00 15.3 3 Sur 6 Sudoeste 0 -- -- 99
2020-05-02 05:00:00 15.4 4 Sur 11 Sur 0.2 -- -- 99
2020-05-02 04:00:00 15.6 4 Sur 12 Sur 0.2 -- -- 97
2020-05-02 03:00:00 15.7 2 Sur 12 Sudeste 0 -- -- 96
2020-05-02 02:00:00 15.8 4 Sur 17 Sur 0 -- -- 97
2020-05-02 01:00:00 15.7 5 Sur 13 Sudoeste 0 -- -- 99
2020-05-02 00:00:00 15.7 4 Sur 11 Sudoeste 0 -- -- 100
2020-05-01 23:00:00 15.7 3 Sudoeste 11 Sur 0.4 -- -- 100
2020-05-01 22:00:00 15.6 4 Sur 19 Sudoeste 0 -- -- 100
2020-05-01 21:00:00 15.6 5 Sur 19 Sudoeste 0.6 -- -- 100
2020-05-01 20:00:00 15.6 6 Sudoeste 24 Sur 0.6 -- -- 100
2020-05-01 19:00:00 15.8 3 Sudoeste 19 Sudoeste 0.2 -- -- 100
2020-05-01 18:00:00 15.7 7 Sudoeste 19 Oeste 0 -- -- 100
2020-05-01 17:00:00 15.8 4 Sur 18 Sur 0 -- -- 100
2020-05-01 16:00:00 16.1 6 Sudoeste 13 Norte 0.2 -- -- 100
2020-05-01 15:00:00 15.9 6 Sudoeste 20 Sudeste 0 -- -- 100
2020-05-01 14:00:00 15.8 6 Sudoeste 26 Sudoeste 0 -- -- 100
2020-05-01 13:00:00 15.6 7 Sudoeste 24 Sur 0 -- -- 100
2020-05-01 12:00:00 15.4 7 Sur 21 Oeste 0.4 -- -- 100
2020-05-01 11:00:00 15.2 7 Sudoeste 17 Oeste 0.2 -- -- 100
2020-05-01 10:00:00 14.9 7 Sur 22 Sur 0 -- -- 100
2020-05-01 09:00:00 14.7 6 Sudoeste 24 Sudoeste 0 -- -- 100
2020-05-01 08:00:00 14.8 7 Sudoeste 25 Sudoeste 0.4 -- -- 100
2020-05-01 07:00:00 14.8 8 Sur 26 Sudoeste 0.2 -- -- 100
2020-05-01 06:00:00 14.9 8 Sudoeste 24 Sur 0.2 -- -- 100
2020-05-01 05:00:00 14.9 10 Sudoeste 26 Sur 0 -- -- 100
2020-05-01 04:00:00 15 9 Sudoeste 30 Sudoeste 0.6 -- -- 100
2020-05-01 03:00:00 15.1 10 Sudoeste 32 Sur 0.8 -- -- 100
2020-05-01 02:00:00 15.1 11 Sudoeste 28 Oeste 8 -- -- 100
2020-05-01 01:00:00 15.1 9 Sudoeste 35 Oeste 3.6 -- -- 100
2020-05-01 00:00:00 15.1 6 Sudoeste 18 Sudoeste 0 -- -- 100
2020-04-30 23:00:00 15 7 Sudoeste 20 Sudoeste 0 -- -- 99
2020-04-30 22:00:00 15.1 10 Sudoeste 26 Oeste 0.6 -- -- 98
2020-04-30 21:00:00 15 6 Sudoeste 21 Sur 0.4 -- -- 98
2020-04-30 20:00:00 15 8 Sudoeste 21 Sudoeste 0 -- -- 97
2020-04-30 19:00:00 15.3 8 Sur 24 Sur 0 -- -- 95
2020-04-30 18:00:00 15.1 7 Sudoeste 22 Noroeste 0 -- -- 95
2020-04-30 17:00:00 14.9 6 Sur 30 Sudoeste 0 -- -- 93
2020-04-30 16:00:00 15.3 9 Sudoeste 23 Sudeste 0 -- -- 87
2020-04-30 15:00:00 14.3 7 Sudoeste 25 Oeste 0.2 -- -- 91
2020-04-30 14:00:00 15.8 8 Sudoeste 28 Oeste 0 -- -- 79
2020-04-30 13:00:00 14.7 4 Sur 23 Sudoeste 0.4 -- -- 89
2020-04-30 12:00:00 14.4 6 Sudoeste 24 Sudoeste 0 -- -- 91
2020-04-30 11:00:00 14.8 6 Sudoeste 20 Oeste 0.2 -- -- 84
2020-04-30 10:00:00 14.4 8 Sudoeste 24 Sur 0 -- -- 86
2020-04-30 09:00:00 13.9 6 Sudoeste 23 Sudoeste 0 -- -- 88
2020-04-30 08:00:00 13.5 6 Sur 19 Oeste 0 -- -- 89
2020-04-30 07:00:00 13.5 7 Sur 23 Sudoeste 0 -- -- 88
2020-04-30 06:00:00 13.4 6 Sur 16 Oeste 0 -- -- 92
2020-04-30 05:00:00 13 6 Sur 15 Sudoeste 0 -- -- 91
2020-04-30 04:00:00 12.2 6 Sudoeste 21 Oeste 0.4 -- -- 92
2020-04-30 03:00:00 12.3 6 Sudoeste 30 Sur 0 -- -- 93
2020-04-30 02:00:00 13.6 7 Sur 19 Sudeste 0 -- -- 89
2020-04-30 01:00:00 13.6 8 Sudoeste 22 Sudoeste 0 -- -- 89
2020-04-30 00:00:00 13.5 6 Sudoeste 28 Sudoeste 0 -- -- 90
2020-04-29 23:00:00 13.4 5 Sudoeste 21 Oeste 0 -- -- 91
2020-04-29 22:00:00 13.1 6 Sudoeste 22 Sudoeste 0.2 -- -- 94
2020-04-29 21:00:00 12.8 6 Sudoeste 17 Sudoeste 0.4 -- -- 96
2020-04-29 20:00:00 11.7 6 Sur 28 Noroeste 3.6 -- -- 96
2020-04-29 19:00:00 14.5 8 Sudoeste 25 Oeste 0 -- -- 79
2020-04-29 18:00:00 14.5 8 Sudoeste 27 Sur 0 -- -- 79
2020-04-29 17:00:00 15 9 Sudoeste 24 Oeste 0 -- -- 77
2020-04-29 16:00:00 15.2 8 Sudoeste 24 Sudoeste 0 -- -- 76
2020-04-29 15:00:00 15.5 7 Sur 17 Sur 0 -- -- 74
2020-04-29 14:00:00 15.1 7 Sudoeste 19 Sudoeste 0 -- -- 73
2020-04-29 13:00:00 14.8 4 Sur 23 Sur 0 -- -- 83
2020-04-29 12:00:00 13.5 6 Sudoeste 21 Sudoeste 0.6 -- -- 91
2020-04-29 11:00:00 13.7 4 Sur 17 Sur 0 -- -- 91
2020-04-29 10:00:00 13.3 5 Sudoeste 14 Sur 0 -- -- 93
2020-04-29 09:00:00 12 4 Sur 8 Sudeste 0 -- -- 97
2020-04-29 08:00:00 11.6 4 Sur 12 Sur 0.4 -- -- 98
2020-04-29 07:00:00 12.2 5 Sur 22 Noroeste 1.6 -- -- 98
2020-04-29 06:00:00 12.9 6 Sudoeste 19 Oeste 1.6 -- -- 97
2020-04-29 05:00:00 13 6 Sudoeste 23 Sudeste 0.2 -- -- 94
2020-04-29 04:00:00 13.3 6 Sur 21 Sudoeste 0.6 -- -- 95
2020-04-29 03:00:00 13.5 7 Sur 19 Sudoeste 0.2 -- -- 92
2020-04-29 02:00:00 13.4 6 Sur 18 Este 1.8 -- -- 94
2020-04-29 01:00:00 14.4 6 Sudoeste 19 Sudoeste 0 -- -- 81
2020-04-29 00:00:00 14.3 4 Sur 13 Sudeste 0 -- -- 81